createdAt,value
2023-03-28T00:01:10.392Z,14.48
2023-03-28T00:03:41.521Z,8.32
2023-03-28T00:06:12.928Z,11.95
2023-03-28T00:08:41.160Z,15.27
2023-03-28T00:11:19.941Z,9.02
2023-03-28T00:14:01.311Z,8.57
2023-03-28T00:16:37.772Z,10.35
2023-03-28T00:19:09.125Z,7.90
2023-03-28T00:21:41.675Z,10.57
2023-03-28T00:24:15.281Z,10.25
2023-03-28T00:26:44.878Z,11.07
2023-03-28T00:29:21.582Z,9.95
2023-03-28T00:31:51.229Z,9.50
2023-03-28T00:34:19.552Z,10.13
2023-03-28T00:36:47.702Z,10.68
2023-03-28T00:39:15.727Z,10.02
2023-03-28T00:41:45.240Z,12.80
2023-03-28T00:44:49.827Z,9.75
2023-03-28T00:47:27.217Z,11.80
2023-03-28T00:50:01.079Z,12.70
2023-03-28T00:52:34.800Z,11.30
2023-03-28T00:55:04.860Z,15.65
2023-03-28T00:57:33.952Z,7.63
2023-03-28T01:00:02.178Z,11.77
2023-03-28T01:02:31.273Z,12.38
2023-03-28T01:05:22.941Z,8.65
2023-03-28T01:07:57.350Z,9.77
2023-03-28T01:10:25.823Z,14.82
2023-03-28T01:12:56.466Z,17.40
2023-03-28T01:15:25.295Z,10.57
2023-03-28T01:18:12.604Z,8.70
2023-03-28T01:20:59.356Z,9.85
2023-03-28T01:24:11.199Z,9.63
2023-03-28T01:27:07.539Z,9.13
2023-03-28T01:29:44.669Z,9.95
2023-03-28T01:32:39.673Z,14.45
2023-03-28T01:35:29.438Z,7.30
2023-03-28T01:41:34.517Z,11.75
2023-03-28T01:44:32.705Z,11.23
2023-03-28T01:47:59.393Z,11.25
2023-03-28T01:50:38.026Z,10.57
2023-03-28T01:53:21.964Z,13.23
2023-03-28T01:56:31.023Z,8.23
2023-03-28T01:59:17.637Z,11.85
2023-03-28T02:02:32.860Z,13.45
2023-03-28T02:05:09.224Z,8.60
2023-03-28T02:07:41.603Z,7.15
2023-03-28T02:10:14.627Z,14.50
2023-03-28T02:13:21.837Z,12.32
2023-03-28T02:15:58.046Z,8.32
2023-03-28T02:19:00.358Z,11.10
2023-03-28T02:22:05.239Z,8.13
2023-03-28T02:24:53.526Z,16.85
2023-03-28T02:27:53.211Z,18.25
2023-03-28T02:30:40.558Z,15.07
2023-03-28T02:33:38.155Z,14.43
2023-03-28T02:39:41.052Z,17.13
2023-03-28T02:42:15.374Z,12.40
2023-03-28T02:45:21.529Z,7.85
2023-03-28T02:48:26.580Z,11.18
2023-03-28T02:50:57.837Z,14.48
2023-03-28T02:53:50.277Z,11.00
2023-03-28T02:56:29.934Z,16.60
2023-03-28T02:59:34.360Z,12.25
2023-03-28T03:02:04.018Z,11.07
2023-03-28T03:07:19.168Z,19.00
2023-03-28T03:09:47.357Z,15.20
2023-03-28T03:12:15.566Z,17.52
2023-03-28T03:14:44.365Z,20.45
2023-03-28T03:17:31.373Z,13.20
2023-03-28T03:20:07.106Z,13.30
2023-03-28T03:22:39.425Z,15.48
2023-03-28T03:25:08.477Z,17.75
2023-03-28T03:28:03.633Z,17.83
2023-03-28T03:30:32.563Z,15.63
2023-03-28T03:33:26.945Z,20.80
2023-03-28T03:36:01.064Z,20.80
2023-03-28T03:38:29.410Z,18.30
2023-03-28T03:40:58.125Z,17.55
2023-03-28T03:43:28.006Z,18.42
2023-03-28T03:46:00.651Z,14.73
2023-03-28T03:48:29.138Z,13.90
2023-03-28T03:50:59.527Z,20.02
2023-03-28T03:53:27.685Z,17.38
2023-03-28T03:56:10.475Z,17.20
2023-03-28T03:59:01.539Z,19.05
2023-03-28T04:01:34.603Z,12.40
2023-03-28T04:04:23.506Z,17.67
2023-03-28T04:07:06.938Z,19.08
2023-03-28T04:09:36.586Z,13.23
2023-03-28T04:12:07.874Z,17.90
2023-03-28T04:14:46.375Z,17.13
2023-03-28T04:17:35.552Z,16.80
2023-03-28T04:20:14.268Z,10.98
2023-03-28T04:23:06.099Z,11.77
2023-03-28T04:25:36.203Z,14.70
2023-03-28T04:28:13.209Z,13.57
2023-03-28T04:30:59.957Z,15.77
2023-03-28T04:34:09.133Z,18.15
2023-03-28T04:36:45.181Z,12.73
2023-03-28T04:39:14.003Z,15.88
2023-03-28T04:41:56.529Z,11.10
2023-03-28T04:44:33.724Z,14.93
2023-03-28T04:47:08.869Z,14.90
2023-03-28T04:49:36.958Z,21.77
2023-03-28T04:52:06.576Z,20.48
2023-03-28T04:54:35.932Z,18.00
2023-03-28T04:57:22.595Z,15.77
2023-03-28T04:59:54.875Z,20.65
2023-03-28T05:02:43.327Z,16.08
2023-03-28T05:05:14.130Z,15.00
2023-03-28T05:07:42.664Z,14.77
2023-03-28T05:10:13.982Z,15.48
2023-03-28T05:15:11.337Z,17.27
2023-03-28T05:18:16.456Z,19.42
2023-03-28T05:20:44.540Z,17.05
2023-03-28T05:23:13.002Z,18.02
2023-03-28T05:25:43.701Z,24.10
2023-03-28T05:28:12.222Z,16.25
2023-03-28T05:30:48.751Z,15.00
2023-03-28T05:33:17.430Z,14.27
2023-03-28T05:35:46.820Z,17.25
2023-03-28T05:38:15.060Z,17.20
2023-03-28T05:40:44.431Z,13.77
2023-03-28T05:43:12.431Z,16.52
2023-03-28T05:45:40.547Z,17.75
2023-03-28T05:48:19.458Z,17.55
2023-03-28T05:50:52.124Z,18.02
2023-03-28T05:53:20.650Z,17.75
2023-03-28T05:55:50.030Z,13.18
2023-03-28T05:58:36.649Z,14.82
2023-03-28T06:01:05.751Z,20.05
2023-03-28T06:03:33.911Z,16.13
2023-03-28T06:08:53.580Z,20.75
2023-03-28T06:11:21.807Z,13.32
2023-03-28T06:14:07.237Z,14.68
2023-03-28T06:16:36.978Z,20.02
2023-03-28T06:19:17.238Z,19.92
2023-03-28T06:21:51.564Z,14.02
2023-03-28T06:24:19.690Z,13.95
2023-03-28T06:26:48.115Z,16.70
2023-03-28T06:29:34.782Z,15.43
2023-03-28T06:32:04.861Z,12.25
2023-03-28T06:34:32.953Z,16.25
2023-03-28T06:37:03.068Z,14.50
2023-03-28T06:39:44.950Z,16.17
2023-03-28T06:42:13.061Z,10.38
2023-03-28T06:44:53.033Z,15.35
2023-03-28T06:47:45.661Z,17.23
2023-03-28T06:50:13.888Z,26.95
2023-03-28T06:52:55.271Z,19.33
2023-03-28T06:55:23.500Z,25.55
2023-03-28T06:57:51.605Z,13.93
2023-03-28T07:00:29.499Z,22.33
2023-03-28T07:03:20.093Z,18.50
2023-03-28T07:05:48.381Z,14.63
2023-03-28T07:08:16.655Z,14.50
2023-03-28T07:10:44.990Z,17.30
2023-03-28T07:13:13.548Z,23.30
2023-03-28T07:16:05.755Z,12.82
2023-03-28T07:21:23.523Z,16.83
2023-03-28T07:23:54.887Z,15.32
2023-03-28T07:26:27.877Z,20.83
2023-03-28T07:28:56.574Z,18.05
2023-03-28T07:31:26.010Z,20.83
2023-03-28T07:33:58.311Z,17.85
2023-03-28T07:36:28.030Z,23.08
2023-03-28T07:39:19.535Z,17.55
2023-03-28T07:41:47.653Z,25.10
2023-03-28T07:44:16.202Z,17.85
2023-03-28T07:46:44.349Z,22.13
2023-03-28T07:49:13.173Z,16.13
2023-03-28T07:51:41.842Z,21.80
2023-03-28T07:54:17.931Z,25.02
2023-03-28T07:59:56.319Z,19.42
2023-03-28T08:02:25.057Z,19.65
2023-03-28T08:04:54.843Z,17.52
2023-03-28T08:07:27.354Z,17.88
2023-03-28T08:10:14.701Z,17.90
2023-03-28T08:12:43.125Z,23.05
2023-03-28T08:15:29.712Z,18.33
2023-03-28T08:17:58.243Z,21.55
2023-03-28T08:20:26.395Z,20.30
2023-03-28T08:23:14.893Z,24.88
2023-03-28T08:26:06.344Z,18.10
2023-03-28T08:28:55.101Z,16.52
2023-03-28T08:31:27.036Z,14.27
2023-03-28T08:33:59.292Z,20.33
2023-03-28T08:36:33.736Z,17.02
2023-03-28T08:39:04.869Z,19.73
2023-03-28T08:41:51.671Z,18.95
2023-03-28T08:44:48.571Z,19.48
2023-03-28T08:48:01.593Z,28.20
2023-03-28T08:50:34.374Z,18.60
2023-03-28T08:53:03.970Z,14.73
2023-03-28T08:55:42.951Z,20.40
2023-03-28T08:58:23.751Z,19.75
2023-03-28T09:00:53.130Z,22.80
2023-03-28T09:03:23.309Z,18.88
2023-03-28T09:06:14.082Z,30.40
2023-03-28T09:09:08.957Z,18.73
2023-03-28T09:12:09.200Z,22.55
2023-03-28T09:15:16.673Z,21.52
2023-03-28T09:18:18.745Z,20.65
2023-03-28T09:20:59.640Z,19.48
2023-03-28T09:23:59.796Z,16.08
2023-03-28T09:26:37.969Z,20.02
2023-03-28T09:29:25.457Z,23.52
2023-03-28T09:32:00.461Z,25.92
2023-03-28T09:34:38.309Z,23.55
2023-03-28T09:37:34.900Z,20.67
2023-03-28T09:40:25.599Z,14.55
2023-03-28T09:43:48.431Z,17.23
2023-03-28T09:46:47.346Z,15.32
2023-03-28T09:49:44.710Z,15.63
2023-03-28T09:52:20.266Z,14.85
2023-03-28T09:55:18.833Z,17.33
2023-03-28T09:58:03.505Z,19.45
2023-03-28T10:00:46.735Z,19.80
2023-03-28T10:03:37.432Z,15.25
2023-03-28T10:06:24.251Z,9.93
2023-03-28T10:08:52.694Z,12.82
2023-03-28T10:11:49.629Z,17.77
2023-03-28T10:14:40.050Z,16.98
2023-03-28T10:17:30.211Z,10.85
2023-03-28T10:20:15.796Z,17.45
2023-03-28T10:22:48.524Z,12.00
2023-03-28T10:25:21.643Z,15.35
2023-03-28T10:28:14.225Z,16.80
2023-03-28T10:30:42.924Z,18.38
2023-03-28T10:33:18.040Z,17.73
2023-03-28T10:36:03.421Z,13.38
2023-03-28T10:41:38.398Z,13.13
2023-03-28T10:44:20.141Z,13.80
2023-03-28T10:46:58.588Z,11.25
2023-03-28T10:49:52.772Z,13.93
2023-03-28T10:52:21.551Z,8.48
2023-03-28T10:55:10.807Z,8.73
2023-03-28T10:58:26.510Z,13.82
2023-03-28T11:01:22.498Z,13.07
2023-03-28T11:07:38.083Z,10.85
2023-03-28T11:10:49.878Z,8.10
2023-03-28T11:13:45.199Z,11.52
2023-03-28T11:19:43.169Z,9.48
2023-03-28T11:22:21.293Z,9.48
2023-03-28T11:25:21.392Z,11.30
2023-03-28T11:28:31.859Z,13.93
2023-03-28T11:31:15.160Z,9.60
2023-03-28T11:34:06.723Z,10.23
2023-03-28T11:36:55.939Z,10.73
2023-03-28T11:39:48.616Z,10.68
2023-03-28T11:42:37.014Z,9.75
2023-03-28T11:45:16.124Z,12.57
2023-03-28T11:48:06.130Z,13.10
2023-03-28T11:51:02.224Z,10.82
2023-03-28T11:54:17.411Z,12.30
2023-03-28T11:57:09.003Z,9.00
2023-03-28T12:00:14.892Z,8.82
2023-03-28T12:02:56.037Z,14.13
2023-03-28T12:05:35.233Z,16.33
2023-03-28T12:08:25.861Z,10.07
2023-03-28T12:11:22.031Z,10.98
2023-03-28T12:14:38.930Z,10.27
2023-03-28T12:17:32.742Z,11.20
2023-03-28T12:20:01.356Z,9.32
2023-03-28T12:22:40.577Z,11.82
2023-03-28T12:25:29.566Z,15.05
2023-03-28T12:28:39.301Z,10.57
2023-03-28T12:31:30.798Z,11.40
2023-03-28T12:34:27.649Z,12.13
2023-03-28T12:37:26.664Z,15.15
2023-03-28T12:40:23.841Z,18.23
2023-03-28T12:42:56.567Z,14.30
2023-03-28T12:45:41.259Z,17.40
2023-03-28T12:48:32.421Z,18.48
2023-03-28T12:51:16.277Z,10.27
2023-03-28T12:54:21.106Z,13.50
2023-03-28T12:57:08.099Z,11.75
2023-03-28T13:00:03.438Z,14.93
2023-03-28T13:03:40.960Z,16.50
2023-03-28T13:06:20.813Z,10.75
2023-03-28T13:09:15.049Z,15.60
2023-03-28T13:12:07.962Z,16.42
2023-03-28T13:14:41.341Z,9.10
2023-03-28T13:17:38.192Z,11.93
2023-03-28T13:20:27.737Z,10.80
2023-03-28T13:23:01.717Z,17.40
2023-03-28T13:25:37.225Z,10.25
2023-03-28T13:28:10.924Z,14.20
2023-03-28T13:30:43.522Z,12.07
2023-03-28T13:33:14.219Z,13.98
2023-03-28T13:35:49.248Z,14.88
2023-03-28T13:38:27.649Z,12.63
2023-03-28T13:41:07.278Z,10.63
2023-03-28T13:43:46.070Z,11.70
2023-03-28T13:46:55.165Z,11.15
2023-03-28T13:49:44.724Z,13.23
2023-03-28T13:52:22.715Z,8.90
2023-03-28T13:54:54.706Z,14.73
2023-03-28T13:57:27.655Z,9.55
2023-03-28T13:59:58.895Z,15.07
2023-03-28T14:02:29.802Z,14.93
2023-03-28T14:05:24.178Z,14.65
2023-03-28T14:07:53.850Z,9.88
2023-03-28T14:10:36.935Z,14.98
2023-03-28T14:13:11.267Z,11.68
2023-03-28T14:15:41.359Z,13.57
2023-03-28T14:18:23.437Z,11.90
2023-03-28T14:20:54.377Z,9.85
2023-03-28T14:25:58.010Z,9.50
2023-03-28T14:28:29.177Z,11.13
2023-03-28T14:30:58.147Z,12.63
2023-03-28T14:33:32.294Z,8.25
2023-03-28T14:36:04.022Z,13.23
2023-03-28T14:38:38.488Z,10.80
2023-03-28T14:41:29.597Z,11.95
2023-03-28T14:43:59.124Z,15.25
2023-03-28T14:46:30.666Z,8.60
2023-03-28T14:49:02.604Z,13.65
2023-03-28T14:51:43.033Z,9.85
2023-03-28T14:54:36.371Z,12.07
2023-03-28T14:57:05.758Z,12.13
2023-03-28T14:59:41.013Z,12.48
2023-03-28T15:02:41.710Z,12.82
2023-03-28T15:05:14.020Z,12.10
2023-03-28T15:07:43.243Z,10.70
2023-03-28T15:10:23.995Z,11.00
2023-03-28T15:13:03.097Z,12.82
2023-03-28T15:15:38.384Z,9.65
2023-03-28T15:18:11.497Z,11.07
2023-03-28T15:20:43.092Z,12.70
2023-03-28T15:23:21.813Z,13.15
2023-03-28T15:25:50.055Z,12.13
2023-03-28T15:28:19.236Z,7.53
2023-03-28T15:30:49.733Z,7.70
2023-03-28T15:33:22.213Z,15.32
2023-03-28T15:35:50.380Z,9.93
2023-03-28T15:38:27.010Z,15.48
2023-03-28T15:41:19.201Z,16.15
2023-03-28T15:43:58.064Z,13.82
2023-03-28T15:46:31.239Z,7.22
2023-03-28T15:49:05.417Z,10.05
2023-03-28T15:51:43.210Z,12.50
2023-03-28T15:54:28.046Z,9.13
2023-03-28T15:57:02.528Z,14.88
2023-03-28T15:59:42.191Z,9.93
2023-03-28T16:02:31.335Z,13.48
2023-03-28T16:05:17.759Z,13.10
2023-03-28T16:07:48.937Z,9.20
2023-03-28T16:13:14.688Z,9.68
2023-03-28T16:16:06.022Z,7.80
2023-03-28T16:18:45.367Z,8.05
2023-03-28T16:21:13.588Z,15.90
2023-03-28T16:23:41.636Z,8.65
2023-03-28T16:26:09.839Z,6.50
2023-03-28T16:28:37.994Z,10.98
2023-03-28T16:31:06.442Z,5.93
2023-03-28T16:33:34.474Z,8.07
2023-03-28T16:36:02.816Z,15.02
2023-03-28T16:38:31.174Z,8.57
2023-03-28T16:40:59.161Z,7.78
2023-03-28T16:43:27.185Z,6.70
2023-03-28T16:45:55.295Z,9.40
2023-03-28T16:48:23.304Z,9.85
2023-03-28T16:50:59.545Z,10.60
2023-03-28T16:53:27.729Z,7.88
2023-03-28T16:55:55.818Z,9.15
2023-03-28T16:58:23.886Z,6.18
2023-03-28T17:00:52.994Z,6.70
2023-03-28T17:03:22.487Z,10.23
2023-03-28T17:05:50.729Z,9.63
2023-03-28T17:08:18.717Z,13.38
2023-03-28T17:10:47.694Z,9.88
2023-03-28T17:13:17.348Z,6.43
2023-03-28T17:16:03.961Z,7.15
2023-03-28T17:18:32.352Z,9.82
2023-03-28T17:21:03.777Z,9.30
2023-03-28T17:23:33.150Z,11.80
2023-03-28T17:26:01.930Z,11.05
2023-03-28T17:28:30.719Z,17.75
2023-03-28T17:30:59.011Z,10.60
2023-03-28T17:33:29.665Z,7.82
2023-03-28T17:35:57.834Z,10.82
2023-03-28T17:38:25.958Z,10.27
2023-03-28T17:40:54.073Z,8.30
2023-03-28T17:43:22.113Z,8.52
2023-03-28T17:45:54.777Z,9.48
2023-03-28T17:48:22.959Z,9.88
2023-03-28T17:50:56.508Z,10.48
2023-03-28T17:53:24.597Z,8.43
2023-03-28T17:55:52.886Z,9.23
2023-03-28T17:58:20.974Z,12.32
2023-03-28T18:00:49.367Z,14.90
2023-03-28T18:03:18.059Z,12.00
2023-03-28T18:06:00.894Z,12.10
2023-03-28T18:08:31.317Z,11.80
2023-03-28T18:11:11.115Z,7.97
2023-03-28T18:13:39.189Z,9.75
2023-03-28T18:16:12.438Z,8.32
2023-03-28T18:18:41.681Z,14.35
2023-03-28T18:21:11.562Z,9.63
2023-03-28T18:23:40.216Z,8.05
2023-03-28T18:26:09.431Z,11.90
2023-03-28T18:28:37.481Z,13.23
2023-03-28T18:31:11.207Z,7.63
2023-03-28T18:33:40.744Z,7.35
2023-03-28T18:36:27.305Z,6.03
2023-03-28T18:39:13.941Z,10.68
2023-03-28T18:41:42.090Z,7.35
2023-03-28T18:44:10.834Z,9.27
2023-03-28T18:46:39.327Z,6.43
2023-03-28T18:49:07.658Z,8.90
2023-03-28T18:51:36.918Z,9.82
2023-03-28T18:54:04.983Z,7.93
2023-03-28T18:56:33.478Z,7.72
2023-03-28T18:59:02.564Z,10.07
2023-03-28T19:01:30.641Z,6.72
2023-03-28T19:03:58.893Z,9.50
2023-03-28T19:06:27.157Z,6.88
2023-03-28T19:08:55.651Z,10.73
2023-03-28T19:11:23.929Z,13.32
2023-03-28T19:13:52.086Z,11.00
2023-03-28T19:16:20.289Z,13.60
2023-03-28T19:18:48.438Z,10.23
2023-03-28T19:21:17.293Z,7.25
2023-03-28T19:23:47.132Z,11.32
2023-03-28T19:26:16.020Z,18.00
2023-03-28T19:28:44.324Z,7.55
2023-03-28T19:31:14.492Z,8.93
2023-03-28T19:33:43.315Z,11.07
2023-03-28T19:36:11.802Z,6.72
2023-03-28T19:38:58.500Z,9.32
2023-03-28T19:41:26.808Z,4.75
2023-03-28T19:43:55.676Z,4.88
2023-03-28T19:46:33.182Z,6.95
2023-03-28T19:49:05.860Z,8.45
2023-03-28T19:51:53.643Z,15.45
2023-03-28T19:54:21.850Z,7.85
2023-03-28T19:56:49.943Z,8.00
2023-03-28T19:59:18.166Z,11.52
2023-03-28T20:01:46.616Z,14.35
2023-03-28T20:04:14.876Z,12.18
2023-03-28T20:06:43.154Z,9.98
2023-03-28T20:09:11.390Z,11.07
2023-03-28T20:11:42.248Z,8.73
2023-03-28T20:14:10.545Z,11.85
2023-03-28T20:16:38.757Z,8.23
2023-03-28T20:19:07.135Z,4.22
2023-03-28T20:21:35.480Z,9.35
2023-03-28T20:24:04.367Z,17.45
2023-03-28T20:26:33.298Z,13.43
2023-03-28T20:29:01.753Z,12.30
2023-03-28T20:31:30.045Z,11.85
2023-03-28T20:33:58.386Z,9.70
2023-03-28T20:36:27.569Z,10.07
2023-03-28T20:38:56.085Z,12.38
2023-03-28T20:41:24.406Z,5.97
2023-03-28T20:43:53.415Z,10.55
2023-03-28T20:46:22.387Z,15.05
2023-03-28T20:48:53.063Z,11.00
2023-03-28T20:51:23.442Z,11.15
2023-03-28T20:53:54.986Z,14.13
2023-03-28T20:56:24.136Z,10.57
2023-03-28T20:58:53.564Z,11.23
2023-03-28T21:01:26.744Z,9.75
2023-03-28T21:04:13.035Z,13.80
2023-03-28T21:06:43.561Z,12.38
2023-03-28T21:09:15.898Z,9.52
2023-03-28T21:11:44.739Z,13.68
2023-03-28T21:14:14.472Z,12.40
2023-03-28T21:16:42.891Z,8.20
2023-03-28T21:19:11.226Z,13.27
2023-03-28T21:21:40.793Z,8.02
2023-03-28T21:24:08.998Z,13.05
2023-03-28T21:26:37.068Z,8.25
2023-03-28T21:29:05.168Z,8.75
2023-03-28T21:31:33.393Z,11.40
2023-03-28T21:34:01.753Z,7.63
2023-03-28T21:36:29.884Z,8.20
2023-03-28T21:38:57.916Z,11.70
2023-03-28T21:41:27.683Z,12.15
2023-03-28T21:43:55.887Z,13.77
2023-03-28T21:46:24.117Z,14.25
2023-03-28T21:48:52.340Z,12.15
2023-03-28T21:51:20.624Z,11.43
2023-03-28T21:53:48.683Z,9.52
2023-03-28T21:56:17.010Z,11.70
2023-03-28T21:58:45.062Z,12.30
2023-03-28T22:01:31.870Z,8.65
2023-03-28T22:04:00.098Z,12.02
2023-03-28T22:06:28.197Z,6.47
2023-03-28T22:08:57.128Z,14.07
2023-03-28T22:11:28.325Z,11.30
2023-03-28T22:14:05.088Z,12.07
2023-03-28T22:16:37.530Z,14.13
2023-03-28T22:19:08.933Z,10.10
2023-03-28T22:21:37.637Z,8.10
2023-03-28T22:24:10.502Z,8.60
2023-03-28T22:26:40.715Z,17.73
2023-03-28T22:29:08.907Z,8.70
2023-03-28T22:31:37.177Z,7.75
2023-03-28T22:34:24.254Z,9.23
2023-03-28T22:37:11.086Z,12.15
2023-03-28T22:39:40.444Z,9.23
2023-03-28T22:42:08.853Z,12.45
2023-03-28T22:44:36.994Z,14.07
2023-03-28T22:47:05.354Z,8.15
2023-03-28T22:49:34.316Z,14.23
2023-03-28T22:52:02.458Z,9.77
2023-03-28T22:54:34.135Z,7.53
2023-03-28T22:57:05.892Z,12.23
2023-03-28T22:59:36.564Z,11.05
2023-03-28T23:02:04.724Z,14.27
2023-03-28T23:04:33.346Z,8.10
2023-03-28T23:07:01.484Z,15.45
2023-03-28T23:09:30.177Z,9.30
2023-03-28T23:11:58.237Z,6.78
2023-03-28T23:14:26.372Z,12.00
2023-03-28T23:16:54.429Z,9.20
2023-03-28T23:19:22.804Z,9.30
2023-03-28T23:21:50.804Z,12.82
2023-03-28T23:24:18.736Z,8.02
2023-03-28T23:26:46.899Z,9.23
2023-03-28T23:29:14.934Z,8.50
2023-03-28T23:31:42.981Z,8.38
2023-03-28T23:34:11.066Z,14.13
2023-03-28T23:36:41.459Z,11.65
2023-03-28T23:39:11.403Z,8.23
2023-03-28T23:41:40.904Z,9.43
2023-03-28T23:44:09.406Z,5.45
2023-03-28T23:46:37.421Z,13.38
2023-03-28T23:49:05.521Z,8.30
2023-03-28T23:51:33.990Z,6.28
2023-03-28T23:54:02.022Z,10.45
2023-03-28T23:56:31.594Z,9.18
2023-03-28T23:58:59.615Z,9.55
